Spring Creek, South Dakota
Current Conditions -  °F | °C
As of 2:52 PM on Thursday 20 Nov 2014 (Local Time) from KVTN Reporting Station
Clear Clear  
Wind Chill: 28°   Ceiling: Unl
Heat Index: 34°   Visibility: 10mi
Dew Point: 24°   Wind: 7mph
Humidity: 67%   Direction: 130°SE
Pressure: 30.01"   Gusts: NA
Location:  43.1381°N, 100.965°W
Report Text: KVTN 202052Z AUTO 13006KT 10SM CLR 01/M04 A3001 RMK AO2 SLP195 T00111044 56020
Loading
Personal Weather Stations






























Interactive Weather Map New forecast layout! Learn more

10-Day Weather Forecast

Advertisements
Track Severe Weather on mobile